Portada
METAR-TAF:

METAR-TAF

Aeropuertos :

Brewster Field

Holdrege, Nebraska, Estados Unidos

latitud: 40-27N, longitud: 099-20W, altitud: 704 m

Observación

El informe se hizo hace 16 minutos, a las 00:35 UTC
Viento calma
Temperatura 15°C
Humedad 31%
Presión 1018 hPa
Visibilidad: 16.1 km
Cielo despejado

METAR: KHDE 300035Z AUTO 00000KT 10SM CLR 15/M02 A3007 RMK AO2 T01501018

Hora: 19:51 (00:51 UTC)


TAF: falta

Observaciones y pronósticos meteorológicos de más de 4000 aeropuertos (mensajes METAR y TAF).

Los puntos amarillos y rojos representan las estaciones disponibles.

Ponga el ratón en el punto deseado para ver el nombre de la estación.

Haga clic para ver las observaciones y los pronósticos meteorológicos.

Para cambiar el mapa : haga clic en los botones verdes con una cruz de color negro para hacer un zoom, en el botón verde con un guión para alejar o en las flechas verdes para mapas adyacentes.


METAR-TAF: